ADDS METAR Data INFO
IDs: Format: Raw Decoded Include TAF

Data at: 1046 UTC 22 Apr 2018

METAR for:KBKW (Beckley/Raleigh Cnty, WV, US)
Text:KBKW 220951Z AUTO 13005KT 10SM CLR 09/M01 A3027 RMK AO2 SLP237 T00941011 TSNO
Temperature: 9.4°C ( 49°F)
Dewpoint: -1.1°C ( 30°F) [RH = 48%]
Pressure (altimeter):30.27 inches Hg (1025.1 mb) [Sea level pressure: 1023.7 mb]
Winds:from the SE (130 degrees) at 6 MPH (5 knots; 2.6 m/s)
Visibility:10 or more sm (16+ km)
Ceiling:at least 12,000 feet AGL
Clouds:sky clear below 12,000 feet AGL
QC Flag:automated observation with no human augmentation
Text:KBKW 220851Z AUTO 15007KT 10SM CLR 11/M01 A3027 RMK AO2 SLP235 T01061011 58003 TSNO
Temperature: 10.6°C ( 51°F)
Dewpoint: -1.1°C ( 30°F) [RH = 44%]
Pressure (altimeter):30.27 inches Hg (1025.1 mb) [Sea level pressure: 1023.5 mb]
Winds:from the SSE (150 degrees) at 8 MPH (7 knots; 3.6 m/s)
Visibility:10 or more sm (16+ km)
Ceiling:at least 12,000 feet AGL
Clouds:sky clear below 12,000 feet AGL
QC Flag:automated observation with no human augmentation
Text:KBKW 220751Z AUTO 15005KT 10SM CLR 11/M01 A3027 RMK AO2 SLP237 T01061011 TSNO
Temperature: 10.6°C ( 51°F)
Dewpoint: -1.1°C ( 30°F) [RH = 44%]
Pressure (altimeter):30.27 inches Hg (1025.1 mb) [Sea level pressure: 1023.7 mb]
Winds:from the SSE (150 degrees) at 6 MPH (5 knots; 2.6 m/s)
Visibility:10 or more sm (16+ km)
Ceiling:at least 12,000 feet AGL
Clouds:sky clear below 12,000 feet AGL
QC Flag:automated observation with no human augmentation
Text:KBKW 220651Z AUTO 00000KT 10SM CLR 11/M01 A3027 RMK AO2 SLP238 T01061011 TSNO
Temperature: 10.6°C ( 51°F)
Dewpoint: -1.1°C ( 30°F) [RH = 44%]
Pressure (altimeter):30.27 inches Hg (1025.1 mb) [Sea level pressure: 1023.8 mb]
Winds:calm
Visibility:10 or more sm (16+ km)
Ceiling:at least 12,000 feet AGL
Clouds:sky clear below 12,000 feet AGL
QC Flag:automated observation with no human augmentation
Text:KBKW 220551Z AUTO 15006KT 10SM CLR 11/M02 A3028 RMK AO2 SLP241 T01111022 10161 20083 58009 TSNO
Temperature: 11.1°C ( 52°F)
Dewpoint: -2.2°C ( 28°F) [RH = 39%]
Pressure (altimeter):30.28 inches Hg (1025.5 mb) [Sea level pressure: 1024.1 mb]
Winds:from the SSE (150 degrees) at 7 MPH (6 knots; 3.1 m/s)
Visibility:10 or more sm (16+ km)
Ceiling:at least 12,000 feet AGL
Clouds:sky clear below 12,000 feet AGL
QC Flag:automated observation with no human augmentation
Text:KBKW 220451Z AUTO 14003KT 10SM CLR 09/M04 A3029 RMK AO2 SLP252 T00891039 402001011 TSNO
Temperature: 8.9°C ( 48°F)
Dewpoint: -3.9°C ( 25°F) [RH = 40%]
Pressure (altimeter):30.29 inches Hg (1025.8 mb) [Sea level pressure: 1025.2 mb]
Winds:from the SE (140 degrees) at 3 MPH (3 knots; 1.5 m/s)
Visibility:10 or more sm (16+ km)
Ceiling:at least 12,000 feet AGL
Clouds:sky clear below 12,000 feet AGL
QC Flag:automated observation with no human augmentation
Text:KBKW 220351Z AUTO 00000KT 10SM CLR 11/M06 A3030 RMK AO2 SLP256 T01111061 TSNO
Temperature: 11.1°C ( 52°F)
Dewpoint: -6.1°C ( 21°F) [RH = 29%]
Pressure (altimeter):30.30 inches Hg (1026.2 mb) [Sea level pressure: 1025.6 mb]
Winds:calm
Visibility:10 or more sm (16+ km)
Ceiling:at least 12,000 feet AGL
Clouds:sky clear below 12,000 feet AGL
QC Flag:automated observation with no human augmentation
Text:KBKW 220251Z AUTO 03004KT 10SM CLR 12/M07 A3031 RMK AO2 SLP258 T01221072 51009 TSNO
Temperature: 12.2°C ( 54°F)
Dewpoint: -7.2°C ( 19°F) [RH = 25%]
Pressure (altimeter):30.31 inches Hg (1026.5 mb) [Sea level pressure: 1025.8 mb]
Winds:from the NNE (30 degrees) at 5 MPH (4 knots; 2.1 m/s)
Visibility:10 or more sm (16+ km)
Ceiling:at least 12,000 feet AGL
Clouds:sky clear below 12,000 feet AGL
QC Flag:automated observation with no human augmentation
Text:KBKW 220151Z AUTO 04004KT 10SM CLR 13/M08 A3030 RMK AO2 SLP255 T01331078 TSNO
Temperature: 13.3°C ( 56°F)
Dewpoint: -7.8°C ( 18°F) [RH = 22%]
Pressure (altimeter):30.30 inches Hg (1026.2 mb) [Sea level pressure: 1025.5 mb]
Winds:from the NE (40 degrees) at 5 MPH (4 knots; 2.1 m/s)
Visibility:10 or more sm (16+ km)
Ceiling:at least 12,000 feet AGL
Clouds:sky clear below 12,000 feet AGL
QC Flag:automated observation with no human augmentation
Text:KBKW 220051Z AUTO 04004KT 10SM CLR 15/M09 A3029 RMK AO2 SLP253 T01501094 TSNO
Temperature: 15.0°C ( 59°F)
Dewpoint: -9.4°C ( 15°F) [RH = 18%]
Pressure (altimeter):30.29 inches Hg (1025.8 mb) [Sea level pressure: 1025.3 mb]
Winds:from the NE (40 degrees) at 5 MPH (4 knots; 2.1 m/s)
Visibility:10 or more sm (16+ km)
Ceiling:at least 12,000 feet AGL
Clouds:sky clear below 12,000 feet AGL
QC Flag:automated observation with no human augmentation
Text:KBKW 212351Z AUTO 01005KT 10SM CLR 16/M08 A3028 RMK AO2 SLP254 T01611078 10200 20161 53000 TSNO
Temperature: 16.1°C ( 61°F)
Dewpoint: -7.8°C ( 18°F) [RH = 19%]
Pressure (altimeter):30.28 inches Hg (1025.5 mb) [Sea level pressure: 1025.4 mb]
Winds:from the N (10 degrees) at 6 MPH (5 knots; 2.6 m/s)
Visibility:10 or more sm (16+ km)
Ceiling:at least 12,000 feet AGL
Clouds:sky clear below 12,000 feet AGL
QC Flag:automated observation with no human augmentation
Text:KBKW 212251Z AUTO 36012KT 10SM CLR 18/M06 A3027 RMK AO2 SLP253 T01781056 TSNO
Temperature: 17.8°C ( 64°F)
Dewpoint: -5.6°C ( 22°F) [RH = 20%]
Pressure (altimeter):30.27 inches Hg (1025.1 mb) [Sea level pressure: 1025.3 mb]
Winds:from the N (360 degrees) at 14 MPH (12 knots; 6.2 m/s)
Visibility:10 or more sm (16+ km)
Ceiling:at least 12,000 feet AGL
Clouds:sky clear below 12,000 feet AGL
QC Flag:automated observation with no human augmentation
Text:KBKW 212151Z AUTO 10SM CLR 19/M05 A3027 RMK AO2 SLP251 T01891050 TSNO
Temperature: 18.9°C ( 66°F)
Dewpoint: -5.0°C ( 23°F) [RH = 19%]
Pressure (altimeter):30.27 inches Hg (1025.1 mb) [Sea level pressure: 1025.1 mb]
Visibility:10 or more sm (16+ km)
Ceiling:at least 12,000 feet AGL
Clouds:sky clear below 12,000 feet AGL
QC Flag:automated observation with no human augmentation
Text:KBKW 212051Z AUTO 00000KT 10SM CLR 19/M06 A3028 RMK AO2 SLP252 T01941056 56013 TSNO
Temperature: 19.4°C ( 67°F)
Dewpoint: -5.6°C ( 22°F) [RH = 18%]
Pressure (altimeter):30.28 inches Hg (1025.5 mb) [Sea level pressure: 1025.2 mb]
Winds:calm
Visibility:10 or more sm (16+ km)
Ceiling:at least 12,000 feet AGL
Clouds:sky clear below 12,000 feet AGL
QC Flag:automated observation with no human augmentation
Text:KBKW 211951Z AUTO 30004KT 10SM CLR 19/M06 A3029 RMK AO2 SLP256 T01891056 TSNO
Temperature: 18.9°C ( 66°F)
Dewpoint: -5.6°C ( 22°F) [RH = 18%]
Pressure (altimeter):30.29 inches Hg (1025.8 mb) [Sea level pressure: 1025.6 mb]
Winds:from the WNW (300 degrees) at 5 MPH (4 knots; 2.1 m/s)
Visibility:10 or more sm (16+ km)
Ceiling:at least 12,000 feet AGL
Clouds:sky clear below 12,000 feet AGL
QC Flag:automated observation with no human augmentation
Text:KBKW 211851Z AUTO 00000KT 10SM CLR 18/M05 A3030 RMK AO2 SLP262 T01781050 TSNO
Temperature: 17.8°C ( 64°F)
Dewpoint: -5.0°C ( 23°F) [RH = 21%]
Pressure (altimeter):30.30 inches Hg (1026.2 mb) [Sea level pressure: 1026.2 mb]
Winds:calm
Visibility:10 or more sm (16+ km)
Ceiling:at least 12,000 feet AGL
Clouds:sky clear below 12,000 feet AGL
QC Flag:automated observation with no human augmentation
Text:KBKW 211751Z AUTO VRB04KT 10SM CLR 16/M05 A3032 RMK AO2 SLP266 T01611050 10167 20028 58026 TSNO
Temperature: 16.1°C ( 61°F)
Dewpoint: -5.0°C ( 23°F) [RH = 23%]
Pressure (altimeter):30.32 inches Hg (1026.8 mb) [Sea level pressure: 1026.6 mb]
Winds:variable direction winds at 5 MPH (4 knots; 2.1 m/s)
Visibility:10 or more sm (16+ km)
Ceiling:at least 12,000 feet AGL
Clouds:sky clear below 12,000 feet AGL
QC Flag:automated observation with no human augmentation
Text:KBKW 211651Z AUTO VRB04KT 10SM CLR 15/M04 A3035 RMK AO2 SLP282 T01501039 TSNO
Temperature: 15.0°C ( 59°F)
Dewpoint: -3.9°C ( 25°F) [RH = 27%]
Pressure (altimeter):30.35 inches Hg (1027.9 mb) [Sea level pressure: 1028.2 mb]
Winds:variable direction winds at 5 MPH (4 knots; 2.1 m/s)
Visibility:10 or more sm (16+ km)
Ceiling:at least 12,000 feet AGL
Clouds:sky clear below 12,000 feet AGL
QC Flag:automated observation with no human augmentation
Text:KBKW 211551Z AUTO 10004KT 10SM CLR 12/M04 A3038 RMK AO2 SLP291 T01221039 TSNO
Temperature: 12.2°C ( 54°F)
Dewpoint: -3.9°C ( 25°F) [RH = 32%]
Pressure (altimeter):30.38 inches Hg (1028.9 mb) [Sea level pressure: 1029.1 mb]
Winds:from the E (100 degrees) at 5 MPH (4 knots; 2.1 m/s)
Visibility:10 or more sm (16+ km)
Ceiling:at least 12,000 feet AGL
Clouds:sky clear below 12,000 feet AGL
QC Flag:automated observation with no human augmentation
Text:KBKW 211451Z AUTO 12007KT 10SM CLR 11/M04 A3040 RMK AO2 SLP297 T01061039 58000 TSNO
Temperature: 10.6°C ( 51°F)
Dewpoint: -3.9°C ( 25°F) [RH = 36%]
Pressure (altimeter):30.40 inches Hg (1029.5 mb) [Sea level pressure: 1029.7 mb]
Winds:from the ESE (120 degrees) at 8 MPH (7 knots; 3.6 m/s)
Visibility:10 or more sm (16+ km)
Ceiling:at least 12,000 feet AGL
Clouds:sky clear below 12,000 feet AGL
QC Flag:automated observation with no human augmentation
Text:KBKW 211351Z AUTO 14014G18KT 10SM CLR 09/M06 A3040 RMK AO2 SLP301 T00891056 TSNO
Temperature: 8.9°C ( 48°F)
Dewpoint: -5.6°C ( 22°F) [RH = 35%]
Pressure (altimeter):30.40 inches Hg (1029.5 mb) [Sea level pressure: 1030.1 mb]
Winds:from the SE (140 degrees) at 16 MPH (14 knots; 7.2 m/s) gusting to 21 MPH (18 knots; 9.3 m/s)
Visibility:10 or more sm (16+ km)
Ceiling:at least 12,000 feet AGL
Clouds:sky clear below 12,000 feet AGL
QC Flag:automated observation with no human augmentation
Text:KBKW 211251Z AUTO 14007KT 10SM CLR 07/M05 A3040 RMK AO2 SLP302 T00721050 TSNO
Temperature: 7.2°C ( 45°F)
Dewpoint: -5.0°C ( 23°F) [RH = 41%]
Pressure (altimeter):30.40 inches Hg (1029.5 mb) [Sea level pressure: 1030.2 mb]
Winds:from the SE (140 degrees) at 8 MPH (7 knots; 3.6 m/s)
Visibility:10 or more sm (16+ km)
Ceiling:at least 12,000 feet AGL
Clouds:sky clear below 12,000 feet AGL
QC Flag:automated observation with no human augmentation
Text:KBKW 211151Z AUTO 00000KT 10SM CLR 03/M04 A3040 RMK AO2 SLP306 T00281039 10033 21011 53010 TSNO
Temperature: 2.8°C ( 37°F)
Dewpoint: -3.9°C ( 25°F) [RH = 61%]
Pressure (altimeter):30.40 inches Hg (1029.5 mb) [Sea level pressure: 1030.6 mb]
Winds:calm
Visibility:10 or more sm (16+ km)
Ceiling:at least 12,000 feet AGL
Clouds:sky clear below 12,000 feet AGL
QC Flag:automated observation with no human augmentation
Text:KBKW 211051Z AUTO 08003KT 10SM CLR 00/M07 A3039 RMK AO2 SLP303 T00001067 TSNO
Temperature: 0.0°C ( 32°F)
Dewpoint: -6.7°C ( 20°F) [RH = 61%]
Pressure (altimeter):30.39 inches Hg (1029.2 mb) [Sea level pressure: 1030.3 mb]
Winds:from the E (80 degrees) at 3 MPH (3 knots; 1.5 m/s)
Visibility:10 or more sm (16+ km)
Ceiling:at least 12,000 feet AGL
Clouds:sky clear below 12,000 feet AGL
QC Flag:automated observation with no human augmentation